Time;durP1;ratioP1;P1;durP2;ratioP2;P2;SDS_P1;SDS_P2;PMS_P1;PMS_P2;Temp;Humidity;BMP_temperature;BMP_pressure;BME280_temperature;BME280_humidity;BME280_pressure;Samples;Min_cycle;Max_cycle;Signal;HPM_P1;HPM_P2
2024/02/04 00:01:49;;;;;;;4.60;2.28;;;7.00;76.40;;;;;;4974724;28;20404;-73
2024/02/04 00:04:15;;;;;;;3.83;2.17;;;7.00;76.60;;;;;;4974794;28;20037;-72
2024/02/04 00:06:41;;;;;;;2.00;1.80;;;6.90;76.70;;;;;;4974599;28;20062;-75
2024/02/04 00:09:06;;;;;;;14.00;8.20;;;6.90;76.90;;;;;;4974589;28;20035;-72
2024/02/04 00:11:32;;;;;;;6.20;2.42;;;6.70;77.40;;;;;;4974507;28;20043;-72
2024/02/04 00:13:57;;;;;;;2.80;1.77;;;6.70;78.00;;;;;;4974740;28;20023;-73
2024/02/04 00:16:23;;;;;;;2.67;1.88;;;6.70;78.10;;;;;;4974410;28;20126;-73
2024/02/04 00:18:48;;;;;;;2.35;1.75;;;6.50;78.60;;;;;;4974567;28;20046;-74
2024/02/04 00:21:14;;;;;;;2.42;2.05;;;6.50;79.00;;;;;;4974450;28;20031;-74
2024/02/04 00:23:39;;;;;;;2.83;2.17;;;6.50;79.00;;;;;;4974469;28;20039;-74
2024/02/04 00:26:05;;;;;;;2.47;1.60;;;6.50;78.60;;;;;;4974555;28;20030;-74
2024/02/04 00:28:31;;;;;;;3.40;2.50;;;6.50;78.80;;;;;;4974209;28;20027;-73
2024/02/04 00:30:58;;;;;;;3.20;2.85;;;6.50;78.80;;;;;;4974143;28;20046;-73
2024/02/04 00:33:24;;;;;;;4.13;2.35;;;6.50;78.80;;;;;;4972828;28;20376;-73
2024/02/04 00:35:50;;;;;;;3.47;2.58;;;6.50;78.70;;;;;;4974158;28;20030;-71
2024/02/04 00:38:15;;;;;;;1.90;1.75;;;6.50;78.50;;;;;;4974237;28;20027;-72
2024/02/04 00:40:41;;;;;;;2.90;2.20;;;6.60;78.30;;;;;;4974170;28;20030;-73
2024/02/04 00:43:06;;;;;;;3.08;2.10;;;6.70;78.30;;;;;;4974127;28;20399;-72
2024/02/04 00:45:32;;;;;;;2.38;2.13;;;6.70;78.00;;;;;;4972849;28;20027;-72
2024/02/04 00:47:57;;;;;;;26.20;18.15;;;6.70;77.80;;;;;;4973703;28;20030;-72
2024/02/04 00:50:23;;;;;;;3.28;2.53;;;6.70;77.80;;;;;;4974083;28;20027;-73
2024/02/04 00:52:48;;;;;;;2.63;1.80;;;6.70;77.50;;;;;;4974051;28;20400;-72
2024/02/04 00:55:14;;;;;;;2.13;1.77;;;6.80;77.30;;;;;;4974128;28;20034;-74
2024/02/04 00:57:39;;;;;;;2.22;1.90;;;6.70;77.20;;;;;;4974020;28;20105;-73
2024/02/04 01:00:07;;;;;;;2.60;1.80;;;6.80;77.00;;;;;;4956935;28;20047;-73
2024/02/04 01:02:33;;;;;;;1.80;1.50;;;6.70;77.20;;;;;;4973975;28;20023;-73
2024/02/04 01:04:58;;;;;;;1.25;1.10;;;6.80;77.00;;;;;;4974052;28;20019;-73
2024/02/04 01:07:24;;;;;;;2.03;1.58;;;6.80;76.70;;;;;;4973858;28;20038;-73
2024/02/04 01:09:49;;;;;;;3.33;1.40;;;6.80;76.40;;;;;;4973930;28;20074;-73
2024/02/04 01:12:15;;;;;;;1.50;1.40;;;6.70;76.90;;;;;;4972548;28;20031;-73
2024/02/04 01:14:40;;;;;;;1.95;1.55;;;6.70;76.80;;;;;;4956204;28;20042;-72
2024/02/04 01:17:07;;;;;;;1.90;1.70;;;6.60;77.20;;;;;;4973892;28;20479;-73
2024/02/04 01:19:32;;;;;;;2.03;1.20;;;6.70;77.20;;;;;;4973879;28;20030;-74
2024/02/04 01:21:58;;;;;;;1.60;1.45;;;6.80;77.00;;;;;;4973853;28;20027;-74
2024/02/04 01:24:25;;;;;;;1.20;1.05;;;6.90;76.50;;;;;;4973868;28;20043;-73
2024/02/04 01:26:50;;;;;;;1.35;1.25;;;6.90;76.20;;;;;;4973839;28;20407;-73
2024/02/04 01:29:16;;;;;;;3.10;1.33;;;6.90;75.90;;;;;;4973714;28;20030;-73
2024/02/04 01:31:41;;;;;;;1.88;1.13;;;7.00;75.50;;;;;;4973355;28;20101;-73
2024/02/04 01:34:07;;;;;;;2.30;1.60;;;6.80;75.90;;;;;;4973610;28;20038;-73
2024/02/04 01:36:33;;;;;;;1.13;0.98;;;6.80;76.00;;;;;;4973553;28;20027;-73
2024/02/04 01:38:58;;;;;;;4.25;1.30;;;6.90;76.00;;;;;;4973303;28;20023;-73
2024/02/04 01:41:26;;;;;;;1.88;1.25;;;6.80;76.20;;;;;;4973553;28;20033;-73
2024/02/04 01:43:52;;;;;;;1.58;1.45;;;6.80;76.00;;;;;;4972358;28;20023;-73
2024/02/04 01:46:17;;;;;;;2.63;1.23;;;6.70;76.50;;;;;;4973576;28;20029;-73
2024/02/04 01:48:43;;;;;;;1.40;1.30;;;6.70;77.00;;;;;;4973653;28;20022;-72
2024/02/04 01:51:09;;;;;;;2.25;1.50;;;6.60;77.10;;;;;;4973539;28;20038;-73
2024/02/04 01:53:38;;;;;;;6.65;4.63;;;6.70;76.90;;;;;;4973515;28;20023;-72
2024/02/04 01:56:05;;;;;;;1.67;1.58;;;6.70;76.70;;;;;;4973523;28;20027;-72
2024/02/04 01:58:31;;;;;;;1.45;1.35;;;6.70;76.70;;;;;;4973557;28;20027;-74
2024/02/04 02:00:57;;;;;;;1.58;1.33;;;6.70;76.70;;;;;;4976433;28;20027;-73
2024/02/04 02:03:24;;;;;;;1.88;1.75;;;6.80;76.70;;;;;;4977142;28;20026;-72
2024/02/04 02:05:50;;;;;;;1.80;1.40;;;6.80;76.30;;;;;;4976955;28;20110;-72
2024/02/04 02:08:16;;;;;;;1.70;1.40;;;6.80;76.30;;;;;;4976983;28;20502;-72
2024/02/04 02:10:46;;;;;;;1.67;1.33;;;6.70;76.70;;;;;;4976851;28;20039;-72
2024/02/04 02:13:22;;;;;;;1.25;1.10;;;6.70;76.40;;;;;;4976908;28;20055;-73
2024/02/04 02:16:01;;;;;;;1.08;0.98;;;6.70;76.40;;;;;;4976646;28;20050;-71
2024/02/04 02:18:29;;;;;;;1.08;0.98;;;6.80;76.20;;;;;;4976801;28;20026;-73
2024/02/04 02:21:36;;;;;;;1.95;1.25;;;6.70;76.40;;;;;;4959334;28;20041;-72
2024/02/04 02:24:19;;;;;;;2.20;1.10;;;6.60;76.80;;;;;;4976675;28;20019;-72
2024/02/04 02:26:44;;;;;;;1.88;1.15;;;6.60;77.00;;;;;;4976683;28;20062;-72
2024/02/04 02:29:10;;;;;;;1.20;1.10;;;6.70;76.90;;;;;;4976540;28;20117;-75
2024/02/04 02:31:38;;;;;;;1.85;1.20;;;6.80;76.40;;;;;;4976411;28;20043;-72
2024/02/04 02:34:04;;;;;;;1.17;1.05;;;6.70;76.30;;;;;;4976474;28;20027;-72
2024/02/04 02:36:36;;;;;;;3.33;1.33;;;6.70;76.50;;;;;;4976468;28;20038;-73
2024/02/04 02:39:12;;;;;;;2.08;1.48;;;6.70;76.90;;;;;;4976301;28;20487;-73
2024/02/04 02:41:41;;;;;;;2.10;1.20;;;6.70;76.90;;;;;;4976294;28;20033;-73
2024/02/04 02:44:07;;;;;;;1.88;1.48;;;6.60;77.00;;;;;;4958725;28;20023;-72
2024/02/04 02:46:33;;;;;;;1.92;1.63;;;6.70;76.90;;;;;;4958875;28;20387;-73
2024/02/04 02:48:59;;;;;;;31.13;20.05;;;6.70;76.80;;;;;;4976340;28;20034;-73
2024/02/04 02:51:24;;;;;;;16.10;11.43;;;6.70;77.00;;;;;;4975553;28;20101;-73
2024/02/04 02:53:50;;;;;;;12.70;8.52;;;6.70;76.80;;;;;;4976084;28;20106;-73
2024/02/04 02:56:15;;;;;;;2.33;1.90;;;6.80;76.60;;;;;;4976072;28;20110;-73
2024/02/04 02:58:41;;;;;;;2.75;1.77;;;6.90;76.30;;;;;;4975827;28;20045;-73
2024/02/04 03:01:06;;;;;;;2.15;1.55;;;6.90;76.20;;;;;;4976104;28;20041;-73
2024/02/04 03:03:32;;;;;;;1.92;1.55;;;6.90;76.00;;;;;;4975872;28;20019;-73
2024/02/04 03:05:58;;;;;;;1.45;1.35;;;6.90;76.10;;;;;;4975830;28;20031;-73
2024/02/04 03:08:23;;;;;;;2.97;1.90;;;6.80;76.60;;;;;;4976015;28;20038;-73
2024/02/04 03:10:49;;;;;;;2.42;1.55;;;6.80;76.80;;;;;;4975403;28;20113;-73
2024/02/04 03:13:14;;;;;;;1.60;1.40;;;6.70;77.30;;;;;;4975903;28;20081;-73
2024/02/04 03:15:41;;;;;;;1.90;1.70;;;6.60;77.30;;;;;;4975538;28;20541;-74
2024/02/04 03:18:06;;;;;;;1.70;1.60;;;6.70;77.40;;;;;;4975743;28;20015;-73
2024/02/04 03:20:32;;;;;;;1.92;1.40;;;6.70;77.20;;;;;;4975676;28;20384;-73
2024/02/04 03:22:57;;;;;;;3.53;1.27;;;6.60;77.40;;;;;;4975637;28;20042;-73
2024/02/04 03:25:26;;;;;;;1.35;1.23;;;6.60;77.60;;;;;;4975605;28;20019;-73
2024/02/04 03:27:52;;;;;;;1.40;1.23;;;6.60;77.80;;;;;;4975799;28;20023;-72
2024/02/04 03:30:18;;;;;;;0.93;0.93;;;6.60;77.80;;;;;;4975486;28;20055;-73
2024/02/04 03:32:43;;;;;;;1.98;1.10;;;6.60;77.40;;;;;;4975488;28;20488;-73
2024/02/04 03:35:09;;;;;;;1.77;1.00;;;6.60;77.40;;;;;;4975383;28;20105;-73
2024/02/04 03:37:35;;;;;;;0.90;0.80;;;6.60;77.30;;;;;;4975363;28;20117;-73
2024/02/04 03:40:00;;;;;;;1.33;0.80;;;6.70;77.10;;;;;;4975356;28;20045;-73
2024/02/04 03:42:26;;;;;;;0.70;0.70;;;6.80;76.90;;;;;;4975262;28;20062;-73
2024/02/04 03:44:51;;;;;;;1.30;0.80;;;6.80;76.40;;;;;;4975293;28;20400;-72
2024/02/04 03:47:17;;;;;;;1.02;0.90;;;6.80;76.30;;;;;;4975264;28;20038;-73
2024/02/04 03:49:42;;;;;;;0.93;0.82;;;6.90;76.30;;;;;;4975095;28;20031;-73
2024/02/04 03:52:08;;;;;;;1.08;0.73;;;6.90;76.00;;;;;;4975033;28;20038;-73
2024/02/04 03:54:33;;;;;;;1.02;0.93;;;7.00;75.80;;;;;;4957543;28;20027;-73
2024/02/04 03:56:59;;;;;;;1.13;0.73;;;7.00;75.10;;;;;;4975108;28;20477;-74
2024/02/04 03:59:24;;;;;;;1.13;0.93;;;6.90;75.50;;;;;;4975126;28;20034;-74
2024/02/04 04:01:53;;;;;;;0.77;0.57;;;6.90;75.60;;;;;;4975247;28;20046;-74
2024/02/04 04:04:18;;;;;;;1.40;0.98;;;7.00;75.50;;;;;;4975593;28;20033;-74
2024/02/04 04:06:45;;;;;;;2.45;0.88;;;7.00;75.30;;;;;;4975225;28;20034;-74
2024/02/04 04:09:11;;;;;;;1.70;1.00;;;6.80;75.70;;;;;;4973963;28;20471;-74
2024/02/04 04:11:37;;;;;;;0.82;0.80;;;6.80;75.20;;;;;;4974783;28;20181;-73
2024/02/04 04:14:03;;;;;;;1.88;1.05;;;6.70;75.70;;;;;;4957617;28;20049;-73
2024/02/04 04:16:28;;;;;;;1.40;1.10;;;6.80;75.70;;;;;;4954201;29;20055;-74
2024/02/04 04:18:54;;;;;;;0.90;0.68;;;6.80;75.60;;;;;;4955603;29;20027;-73
2024/02/04 04:21:20;;;;;;;2.63;0.93;;;6.80;75.50;;;;;;4954279;29;20042;-73
2024/02/04 04:23:45;;;;;;;1.63;1.10;;;6.60;75.70;;;;;;4953504;28;20122;-72
2024/02/04 04:26:11;;;;;;;1.88;1.38;;;6.50;76.30;;;;;;4954272;29;20114;-73
2024/02/04 04:28:36;;;;;;;1.67;1.20;;;6.50;76.20;;;;;;4955359;29;20035;-73
2024/02/04 04:31:02;;;;;;;2.03;1.40;;;6.40;76.70;;;;;;4953791;29;20111;-72
2024/02/04 04:33:27;;;;;;;2.42;1.38;;;6.50;76.80;;;;;;4953703;29;20173;-73
2024/02/04 04:35:53;;;;;;;1.13;1.02;;;6.50;76.50;;;;;;4955114;29;20531;-73
2024/02/04 04:38:19;;;;;;;1.58;1.48;;;6.40;77.50;;;;;;4954026;29;20527;-73
2024/02/04 04:40:44;;;;;;;1.83;1.20;;;6.30;77.60;;;;;;4953902;29;20376;-73
2024/02/04 04:43:11;;;;;;;1.77;1.10;;;6.30;77.80;;;;;;4955218;29;20090;-73
2024/02/04 04:45:36;;;;;;;2.35;1.20;;;6.30;77.70;;;;;;4954894;29;20110;-73
2024/02/04 04:48:02;;;;;;;1.23;0.93;;;6.20;78.00;;;;;;4954685;29;20118;-73
2024/02/04 04:50:27;;;;;;;1.50;0.88;;;6.30;77.40;;;;;;4954639;29;20051;-73
2024/02/04 04:52:53;;;;;;;2.30;0.93;;;6.20;77.60;;;;;;4954827;29;20031;-73
2024/02/04 04:55:19;;;;;;;1.80;0.90;;;6.10;78.20;;;;;;4955118;29;20038;-73
2024/02/04 04:57:44;;;;;;;0.90;0.80;;;6.10;78.40;;;;;;4937804;29;20051;-73
2024/02/04 05:00:12;;;;;;;1.52;0.80;;;6.10;78.20;;;;;;4954795;29;20032;-73
2024/02/04 05:02:39;;;;;;;0.73;0.70;;;6.20;78.30;;;;;;4973872;28;20031;-73
2024/02/04 05:05:05;;;;;;;1.17;0.70;;;6.20;78.00;;;;;;4974072;28;20023;-73
2024/02/04 05:07:31;;;;;;;1.08;0.70;;;6.20;77.70;;;;;;4973980;28;20023;-73
2024/02/04 05:09:56;;;;;;;1.73;0.65;;;6.20;77.80;;;;;;4973980;28;20054;-73
2024/02/04 05:12:22;;;;;;;3.10;0.70;;;6.30;77.40;;;;;;4980254;28;20027;-73
2024/02/04 05:14:47;;;;;;;1.42;0.50;;;6.30;77.10;;;;;;4973863;28;20051;-73
2024/02/04 05:17:13;;;;;;;0.98;0.70;;;6.30;76.90;;;;;;4973873;28;20031;-73
2024/02/04 05:19:41;;;;;;;1.95;0.65;;;6.30;76.90;;;;;;4974007;28;20023;-73
2024/02/04 05:22:06;;;;;;;2.03;0.60;;;6.40;76.80;;;;;;4973745;28;20391;-73
2024/02/04 05:24:32;;;;;;;0.50;0.50;;;6.50;76.70;;;;;;4973886;28;20026;-73
2024/02/04 05:26:58;;;;;;;4.13;0.60;;;6.50;76.10;;;;;;4973872;28;20039;-73
2024/02/04 05:29:23;;;;;;;0.68;0.50;;;6.50;76.20;;;;;;4973820;28;20428;-73
2024/02/04 05:31:49;;;;;;;0.68;0.47;;;6.50;76.20;;;;;;4973822;28;20035;-72
2024/02/04 05:34:14;;;;;;;0.80;0.63;;;6.40;76.50;;;;;;4975497;28;20018;-73
2024/02/04 05:36:41;;;;;;;0.88;0.60;;;6.30;77.00;;;;;;4977544;28;20035;-72
2024/02/04 05:39:11;;;;;;;0.95;0.82;;;6.40;76.90;;;;;;4978928;28;20034;-73
2024/02/04 05:41:36;;;;;;;1.02;0.50;;;6.40;76.80;;;;;;4977383;28;20030;-72
2024/02/04 05:44:02;;;;;;;0.77;0.65;;;6.40;76.60;;;;;;4977360;28;20030;-72
2024/02/04 05:46:28;;;;;;;0.68;0.68;;;6.40;77.40;;;;;;4977562;28;20030;-72
2024/02/04 05:48:53;;;;;;;3.95;1.00;;;6.50;77.40;;;;;;4960167;28;20026;-73
2024/02/04 05:51:19;;;;;;;1.70;1.10;;;6.50;75.80;;;;;;4977317;28;20038;-73
2024/02/04 05:53:44;;;;;;;1.33;0.90;;;6.50;75.90;;;;;;4959838;28;20029;-73
2024/02/04 05:56:10;;;;;;;2.60;1.00;;;6.40;76.10;;;;;;4977231;28;20035;-73
2024/02/04 05:58:35;;;;;;;3.05;1.00;;;6.30;76.60;;;;;;4960077;28;20034;-73
2024/02/04 06:01:02;;;;;;;3.03;1.00;;;6.30;76.40;;;;;;4960006;28;20038;-73
2024/02/04 06:03:27;;;;;;;1.83;0.80;;;6.30;76.50;;;;;;4977147;28;20483;-72
2024/02/04 06:05:53;;;;;;;3.63;1.10;;;6.30;76.70;;;;;;4959829;28;20031;-73
2024/02/04 06:08:18;;;;;;;2.72;0.98;;;6.30;76.80;;;;;;4977014;28;20038;-72
2024/02/04 06:10:44;;;;;;;2.53;1.25;;;6.30;76.90;;;;;;4976920;28;20031;-72
2024/02/04 06:13:09;;;;;;;2.50;1.50;;;6.40;76.60;;;;;;4959761;28;20031;-73
2024/02/04 06:15:35;;;;;;;4.50;1.17;;;6.40;76.40;;;;;;4959419;28;20046;-73
2024/02/04 06:18:01;;;;;;;2.70;1.20;;;6.40;76.10;;;;;;4959645;28;20037;-73
2024/02/04 06:20:26;;;;;;;2.80;1.00;;;6.40;75.80;;;;;;4976697;28;20689;-73
2024/02/04 06:22:52;;;;;;;2.85;1.25;;;6.40;76.20;;;;;;4976724;28;20060;-73
2024/02/04 06:25:18;;;;;;;5.38;1.38;;;6.40;75.90;;;;;;4976730;28;20077;-73
2024/02/04 06:27:43;;;;;;;3.08;1.20;;;6.30;76.40;;;;;;4976654;28;20536;-73
2024/02/04 06:30:09;;;;;;;2.17;1.00;;;6.30;76.70;;;;;;4976623;28;20110;-73
2024/02/04 06:32:35;;;;;;;2.30;1.10;;;6.30;76.70;;;;;;4976579;28;20099;-73
2024/02/04 06:35:00;;;;;;;1.98;1.02;;;6.30;77.10;;;;;;4976570;28;20097;-73
2024/02/04 06:37:26;;;;;;;2.72;1.05;;;6.30;77.10;;;;;;4959408;28;20019;-73
2024/02/04 06:39:54;;;;;;;2.60;1.00;;;6.40;76.80;;;;;;4976431;28;20027;-73
2024/02/04 06:42:20;;;;;;;1.75;0.90;;;6.40;76.60;;;;;;4976247;28;20097;-73
2024/02/04 06:44:45;;;;;;;2.58;0.63;;;6.40;76.70;;;;;;4958997;28;20468;-74
2024/02/04 06:47:14;;;;;;;2.33;1.20;;;6.30;77.20;;;;;;4975699;28;20031;-73
2024/02/04 06:49:43;;;;;;;2.90;0.90;;;6.20;77.80;;;;;;4976202;28;20365;-73
2024/02/04 06:52:09;;;;;;;1.80;0.70;;;6.30;77.70;;;;;;4976117;28;20023;-74
2024/02/04 06:54:34;;;;;;;1.00;0.60;;;6.30;77.80;;;;;;4976513;28;20038;-73
2024/02/04 06:57:00;;;;;;;1.40;0.70;;;6.30;77.70;;;;;;4976167;28;20030;-73
2024/02/04 06:59:25;;;;;;;2.58;0.98;;;6.40;77.60;;;;;;4976120;28;20022;-73
2024/02/04 07:01:53;;;;;;;1.48;0.60;;;6.40;77.40;;;;;;4975952;28;20070;-73
2024/02/04 07:04:18;;;;;;;2.63;0.60;;;6.40;77.40;;;;;;4976071;28;20458;-73
2024/02/04 07:06:44;;;;;;;1.30;0.40;;;6.40;77.30;;;;;;4975915;28;20143;-73
2024/02/04 07:09:09;;;;;;;1.08;0.65;;;6.50;77.30;;;;;;4958565;28;20058;-73
2024/02/04 07:11:35;;;;;;;0.77;0.70;;;6.40;77.20;;;;;;4975841;28;20054;-73
2024/02/04 07:14:01;;;;;;;1.63;0.60;;;6.40;77.20;;;;;;4975983;28;20350;-73
2024/02/04 07:16:27;;;;;;;2.25;0.85;;;6.40;77.50;;;;;;4975740;28;20047;-73
2024/02/04 07:18:52;;;;;;;4.13;0.73;;;6.40;77.50;;;;;;4974642;28;20027;-73
2024/02/04 07:21:18;;;;;;;1.67;0.70;;;6.50;77.40;;;;;;4975720;28;20035;-74
2024/02/04 07:23:43;;;;;;;1.98;0.70;;;6.50;77.30;;;;;;4975716;28;20416;-73
2024/02/04 07:26:09;;;;;;;0.95;0.70;;;6.50;77.30;;;;;;4975601;28;20109;-73
2024/02/04 07:28:35;;;;;;;1.00;0.45;;;6.50;77.20;;;;;;4975489;28;20023;-73
2024/02/04 07:31:00;;;;;;;1.48;0.57;;;6.50;77.20;;;;;;4975560;28;20453;-72
2024/02/04 07:33:26;;;;;;;2.72;0.40;;;6.60;76.80;;;;;;4975346;28;20022;-73
2024/02/04 07:35:51;;;;;;;1.30;0.57;;;6.60;76.90;;;;;;4975523;28;20472;-73
2024/02/04 07:38:17;;;;;;;0.68;0.55;;;6.50;77.60;;;;;;4975191;28;20035;-73
2024/02/04 07:40:42;;;;;;;1.50;0.60;;;6.50;77.70;;;;;;4975236;28;20030;-73
2024/02/04 07:43:08;;;;;;;0.93;0.43;;;6.40;77.90;;;;;;4975236;28;20030;-73
2024/02/04 07:45:35;;;;;;;0.60;0.30;;;6.50;78.00;;;;;;4957879;28;20023;-73
2024/02/04 07:48:02;;;;;;;0.63;0.45;;;6.60;77.20;;;;;;4975139;28;20167;-73
2024/02/04 07:50:27;;;;;;;1.23;0.55;;;6.60;77.30;;;;;;4957696;28;20031;-73
2024/02/04 07:52:53;;;;;;;1.08;0.40;;;6.60;77.10;;;;;;4975073;28;20042;-73
2024/02/04 07:55:18;;;;;;;1.85;0.50;;;6.60;76.90;;;;;;4957796;28;20062;-72
2024/02/04 07:57:44;;;;;;;1.30;0.68;;;6.60;77.20;;;;;;4974019;28;20027;-72
2024/02/04 08:00:10;;;;;;;1.65;1.05;;;6.60;77.10;;;;;;4975068;28;20035;-72
2024/02/04 08:02:37;;;;;;;1.13;1.00;;;6.70;76.80;;;;;;4974962;28;20053;-74
2024/02/04 08:05:04;;;;;;;1.23;0.85;;;6.60;76.70;;;;;;4974784;28;20097;-73
2024/02/04 08:07:29;;;;;;;2.10;1.00;;;6.60;76.80;;;;;;4974936;28;20026;-73
2024/02/04 08:09:55;;;;;;;1.75;0.60;;;6.60;77.00;;;;;;4974837;28;20070;-72
2024/02/04 08:12:21;;;;;;;1.55;0.50;;;6.70;76.70;;;;;;4974688;28;20471;-73
2024/02/04 08:14:46;;;;;;;2.35;0.80;;;6.80;76.70;;;;;;4974746;28;20121;-73
2024/02/04 08:17:12;;;;;;;1.58;0.93;;;6.80;76.10;;;;;;4974653;28;20026;-74
2024/02/04 08:19:37;;;;;;;1.75;0.70;;;6.80;75.30;;;;;;4974685;28;20111;-74
2024/02/04 08:22:04;;;;;;;1.45;0.70;;;6.80;75.40;;;;;;4974897;28;20121;-73
2024/02/04 08:24:31;;;;;;;6.85;1.83;;;6.90;75.00;;;;;;4974547;28;20331;-73
2024/02/04 08:26:58;;;;;;;0.95;0.55;;;7.00;78.20;;;;;;4974533;28;20635;-75
2024/02/04 08:29:24;;;;;;;2.60;0.70;;;7.40;77.60;;;;;;4974532;28;20019;-72
2024/02/04 08:31:50;;;;;;;1.27;0.28;;;7.50;73.50;;;;;;4974402;28;20097;-74
2024/02/04 08:34:16;;;;;;;1.27;0.70;;;7.60;71.60;;;;;;4957383;28;20027;-75
2024/02/04 08:36:41;;;;;;;1.48;0.57;;;7.50;72.20;;;;;;4974398;28;20361;-75
2024/02/04 08:39:07;;;;;;;2.30;0.57;;;7.50;72.20;;;;;;4974408;28;20504;-73
2024/02/04 08:41:32;;;;;;;0.80;0.32;;;7.90;71.90;;;;;;4974142;28;20480;-74
2024/02/04 08:43:58;;;;;;;1.67;1.20;;;8.10;70.90;;;;;;4974960;28;20054;-73
2024/02/04 08:46:23;;;;;;;0.77;0.43;;;8.40;68.60;;;;;;4974220;28;20019;-77
2024/02/04 08:48:49;;;;;;;0.82;0.40;;;8.50;67.50;;;;;;4974202;28;20030;-76
2024/02/04 08:51:16;;;;;;;1.63;0.40;;;8.30;67.10;;;;;;4974269;28;20030;-78
2024/02/04 08:53:42;;;;;;;0.70;0.50;;;8.00;68.80;;;;;;4973994;28;20473;-76
2024/02/04 08:56:08;;;;;;;1.50;0.70;;;7.90;69.10;;;;;;4973987;28;20520;-74
2024/02/04 08:58:34;;;;;;;0.82;0.20;;;7.90;69.60;;;;;;4963676;28;20106;-73
2024/02/04 09:01:00;;;;;;;1.17;0.40;;;7.60;70.40;;;;;;4954780;29;20074;-74
2024/02/04 09:03:26;;;;;;;1.80;0.50;;;7.50;71.00;;;;;;4954848;29;20020;-75
2024/02/04 09:05:51;;;;;;;1.75;0.57;;;7.50;71.10;;;;;;4954689;29;20082;-72
2024/02/04 09:08:17;;;;;;;0.52;0.40;;;7.60;71.30;;;;;;4954735;28;20027;-72
2024/02/04 09:10:42;;;;;;;0.68;0.40;;;7.70;70.90;;;;;;4941786;29;20026;-74
2024/02/04 09:13:08;;;;;;;3.53;1.05;;;7.80;70.20;;;;;;4958632;29;20054;-74
2024/02/04 09:15:33;;;;;;;5.28;1.13;;;7.90;70.00;;;;;;4958820;29;20083;-73
2024/02/04 09:17:59;;;;;;;1.58;0.70;;;8.00;69.40;;;;;;4958690;29;20134;-74
2024/02/04 09:20:24;;;;;;;0.98;0.60;;;8.20;68.60;;;;;;4958566;29;20036;-74
2024/02/04 09:22:50;;;;;;;2.28;0.57;;;8.30;68.60;;;;;;4958635;29;20039;-73
2024/02/04 09:25:15;;;;;;;2.08;0.63;;;8.50;67.10;;;;;;4966381;29;20058;-76
2024/02/04 09:27:41;;;;;;;2.45;0.52;;;8.50;66.70;;;;;;4957278;29;20033;-74
2024/02/04 09:30:06;;;;;;;1.25;0.40;;;8.60;66.10;;;;;;4958836;29;20031;-73
2024/02/04 09:32:34;;;;;;;1.30;0.65;;;8.80;65.50;;;;;;4941390;29;20378;-74
2024/02/04 09:34:59;;;;;;;0.57;0.22;;;8.80;66.00;;;;;;4958340;29;20031;-74
2024/02/04 09:37:25;;;;;;;0.57;0.20;;;8.90;64.90;;;;;;4958249;29;20028;-74
2024/02/04 09:39:50;;;;;;;3.53;0.30;;;9.10;65.40;;;;;;4958185;29;20036;-73
2024/02/04 09:42:20;;;;;;;1.75;0.32;;;9.20;63.80;;;;;;4958069;29;20035;-74
2024/02/04 09:44:48;;;;;;;1.27;0.40;;;9.30;63.30;;;;;;4958472;29;20011;-73
2024/02/04 09:47:13;;;;;;;2.35;0.65;;;9.30;63.30;;;;;;4958090;29;20031;-74
2024/02/04 09:49:39;;;;;;;0.60;0.50;;;9.30;63.40;;;;;;4957982;29;20046;-73
2024/02/04 09:52:08;;;;;;;2.05;0.55;;;9.20;63.00;;;;;;4957785;29;20031;-73
2024/02/04 09:55:05;;;;;;;1.52;0.57;;;9.20;64.10;;;;;;4957933;29;20023;-73
2024/02/04 09:57:32;;;;;;;4.00;0.80;;;9.50;63.80;;;;;;4955928;28;20118;-73
2024/02/04 09:59:57;;;;;;;1.30;0.90;;;9.90;63.10;;;;;;4957767;29;20050;-73
2024/02/04 10:02:24;;;;;;;1.60;0.75;;;10.20;61.80;;;;;;4957756;29;20042;-73
2024/02/04 10:04:49;;;;;;;1.60;0.82;;;10.50;60.90;;;;;;4957751;29;20030;-73
2024/02/04 10:07:16;;;;;;;1.02;0.55;;;10.70;59.10;;;;;;4957597;29;20043;-72
2024/02/04 10:09:43;;;;;;;1.45;0.47;;;10.90;58.80;;;;;;4940729;29;20468;-72
2024/02/04 10:12:09;;;;;;;2.30;0.60;;;11.10;57.50;;;;;;4957537;29;20027;-75
2024/02/04 10:14:35;;;;;;;0.70;0.60;;;11.20;57.30;;;;;;4957196;29;20373;-73
2024/02/04 10:17:01;;;;;;;1.20;0.50;;;11.00;56.90;;;;;;4957428;29;20082;-73
2024/02/04 10:19:26;;;;;;;2.45;0.85;;;11.00;57.70;;;;;;4957458;29;20046;-73
2024/02/04 10:22:00;;;;;;;1.20;0.50;;;11.00;57.90;;;;;;4956316;28;20039;-74
2024/02/04 10:24:25;;;;;;;2.00;0.80;;;11.30;56.90;;;;;;4957415;29;20054;-74
2024/02/04 10:26:51;;;;;;;3.78;0.80;;;11.50;56.50;;;;;;4956046;29;20027;-72
2024/02/04 10:29:18;;;;;;;2.35;1.00;;;11.50;56.60;;;;;;4956148;29;20019;-72
2024/02/04 10:31:44;;;;;;;2.28;1.60;;;11.70;56.80;;;;;;4957227;29;20106;-73
2024/02/04 10:34:10;;;;;;;2.65;0.80;;;11.80;55.90;;;;;;4957146;29;20110;-73
2024/02/04 10:36:35;;;;;;;1.45;0.77;;;11.60;55.70;;;;;;4957103;29;20085;-73
2024/02/04 10:39:01;;;;;;;1.27;0.52;;;11.50;57.00;;;;;;4957222;29;20034;-74
2024/02/04 10:41:31;;;;;;;1.75;0.90;;;11.60;56.30;;;;;;4956965;29;20098;-74
2024/02/04 10:44:00;;;;;;;3.33;1.05;;;11.90;55.80;;;;;;4955814;29;20027;-73
2024/02/04 10:46:29;;;;;;;1.83;0.63;;;12.20;55.40;;;;;;4955752;29;20473;-73
2024/02/04 10:48:58;;;;;;;1.10;0.52;;;12.40;53.60;;;;;;4956991;29;20019;-73
2024/02/04 10:51:28;;;;;;;2.95;0.65;;;12.40;52.70;;;;;;4956905;29;20056;-72
2024/02/04 10:54:00;;;;;;;3.33;0.80;;;12.10;53.60;;;;;;4956891;29;20038;-72
2024/02/04 10:56:31;;;;;;;1.27;0.60;;;11.50;56.40;;;;;;4956839;29;20028;-73
2024/02/04 10:59:00;;;;;;;1.90;0.40;;;11.50;56.10;;;;;;4956953;29;20050;-74
2024/02/04 11:01:26;;;;;;;1.48;0.65;;;11.60;56.10;;;;;;4956731;29;20027;-75
2024/02/04 11:03:53;;;;;;;0.90;0.63;;;11.60;56.10;;;;;;4956831;29;20162;-72
2024/02/04 11:06:20;;;;;;;3.42;0.63;;;11.90;55.20;;;;;;4956608;29;20029;-75
2024/02/04 11:08:46;;;;;;;2.00;0.60;;;12.10;54.60;;;;;;4956553;29;20027;-74
2024/02/04 11:11:12;;;;;;;1.08;0.60;;;12.30;54.60;;;;;;4955368;29;20037;-74
2024/02/04 11:13:39;;;;;;;2.40;0.95;;;12.50;53.70;;;;;;4939487;29;20042;-72
2024/02/04 11:16:15;;;;;;;3.65;1.70;;;12.70;53.40;;;;;;4956151;29;20071;-75
2024/02/04 11:18:56;;;;;;;1.58;1.05;;;12.70;53.00;;;;;;4956403;29;20050;-72
2024/02/04 11:21:58;;;;;;;2.67;0.85;;;13.00;52.30;;;;;;4938998;29;20031;-73
2024/02/04 11:24:49;;;;;;;2.50;0.73;;;13.40;51.40;;;;;;4956263;29;20498;-74
2024/02/04 11:27:15;;;;;;;1.67;0.65;;;13.40;50.00;;;;;;4939054;29;20504;-74
2024/02/04 11:29:41;;;;;;;2.03;0.85;;;13.40;50.60;;;;;;4956034;29;20158;-74
2024/02/04 11:32:07;;;;;;;3.72;0.77;;;13.60;50.60;;;;;;4955904;28;20479;-74
2024/02/04 11:34:33;;;;;;;1.85;0.60;;;13.40;50.60;;;;;;4956149;29;20027;-74
2024/02/04 11:37:00;;;;;;;2.20;0.63;;;13.40;50.30;;;;;;4956449;29;20392;-75
2024/02/04 11:39:26;;;;;;;2.65;0.60;;;13.50;50.80;;;;;;4956179;29;20027;-73
2024/02/04 11:41:52;;;;;;;4.07;1.02;;;13.50;50.70;;;;;;4955902;29;20075;-73
2024/02/04 11:44:22;;;;;;;1.33;0.73;;;13.50;50.30;;;;;;4955797;29;20362;-73
2024/02/04 11:46:48;;;;;;;1.33;0.70;;;13.60;50.20;;;;;;4973929;28;20030;-74
2024/02/04 11:49:18;;;;;;;1.20;0.55;;;13.60;50.60;;;;;;4975185;28;20034;-74
2024/02/04 11:51:51;;;;;;;1.50;0.73;;;13.40;50.70;;;;;;4975049;28;20444;-72
2024/02/04 11:54:19;;;;;;;1.25;0.80;;;13.30;51.40;;;;;;4975007;28;20027;-72
2024/02/04 11:56:52;;;;;;;4.75;0.70;;;13.20;52.00;;;;;;4974998;28;20038;-72
2024/02/04 11:59:20;;;;;;;1.30;0.60;;;12.80;52.80;;;;;;4975160;28;20356;-73
2024/02/04 12:01:46;;;;;;;2.33;0.70;;;12.70;53.90;;;;;;4974869;28;20038;-74
2024/02/04 12:04:16;;;;;;;1.50;0.63;;;12.60;53.70;;;;;;4974984;28;20109;-74
2024/02/04 12:06:42;;;;;;;1.10;0.70;;;12.50;54.40;;;;;;4974872;28;20538;-73
2024/02/04 12:09:09;;;;;;;1.70;0.70;;;12.20;55.20;;;;;;4974844;28;20109;-72
2024/02/04 12:11:37;;;;;;;1.85;0.45;;;12.10;55.60;;;;;;4974627;28;20543;-73
2024/02/04 12:14:05;;;;;;;1.52;0.50;;;12.10;55.40;;;;;;4974774;28;20468;-73
2024/02/04 12:16:32;;;;;;;3.13;0.70;;;12.20;55.20;;;;;;4974701;28;20097;-73
2024/02/04 12:18:58;;;;;;;2.35;0.50;;;12.50;56.70;;;;;;4976288;28;20023;-75
2024/02/04 12:21:24;;;;;;;1.67;0.80;;;13.00;54.20;;;;;;4976229;28;20035;-73
2024/02/04 12:23:50;;;;;;;3.03;0.50;;;13.60;52.70;;;;;;4974720;28;20041;-73
2024/02/04 12:26:16;;;;;;;1.45;0.50;;;14.10;50.30;;;;;;4974510;28;20364;-75
2024/02/04 12:28:42;;;;;;;2.67;0.60;;;14.50;50.70;;;;;;4974302;28;20034;-74
2024/02/04 12:31:15;;;;;;;2.35;0.50;;;14.80;49.40;;;;;;4974315;28;20031;-75
2024/02/04 12:33:41;;;;;;;2.75;0.88;;;15.10;48.60;;;;;;4974513;28;20046;-77
2024/02/04 12:36:08;;;;;;;1.38;0.50;;;15.50;48.20;;;;;;4974317;28;20074;-74
2024/02/04 12:38:33;;;;;;;2.35;0.60;;;15.50;47.60;;;;;;4974354;28;20150;-73
2024/02/04 12:41:03;;;;;;;3.60;0.75;;;15.50;46.30;;;;;;4974116;28;20450;-74
2024/02/04 12:43:28;;;;;;;2.88;0.40;;;15.30;47.30;;;;;;4973881;28;20063;-73
2024/02/04 12:45:59;;;;;;;2.95;0.80;;;15.60;46.30;;;;;;4974243;28;20055;-74
2024/02/04 12:48:25;;;;;;;0.85;0.30;;;15.70;45.40;;;;;;4974289;28;20029;-74
2024/02/04 12:50:51;;;;;;;0.85;0.40;;;15.60;46.20;;;;;;4974290;28;20027;-72
2024/02/04 12:53:19;;;;;;;1.05;0.32;;;16.00;45.70;;;;;;4972876;28;20026;-72